sensor_id;sensor_type;location;lat;lon;timestamp;P1;durP1;ratioP1;P2;durP2;ratioP2
4051;SDS011;2040;50.924;11.604;2023-05-10T00:01:22;5.40;;;2.30;;
4051;SDS011;2040;50.924;11.604;2023-05-10T00:03:48;3.10;;;2.30;;
4051;SDS011;2040;50.924;11.604;2023-05-10T00:06:13;3.10;;;2.20;;
4051;SDS011;2040;50.924;11.604;2023-05-10T00:08:39;4.80;;;2.37;;
4051;SDS011;2040;50.924;11.604;2023-05-10T00:11:04;2.97;;;2.47;;
4051;SDS011;2040;50.924;11.604;2023-05-10T00:13:30;2.83;;;2.13;;
4051;SDS011;2040;50.924;11.604;2023-05-10T00:15:56;3.30;;;2.30;;
4051;SDS011;2040;50.924;11.604;2023-05-10T00:18:21;4.13;;;1.73;;
4051;SDS011;2040;50.924;11.604;2023-05-10T00:20:47;5.50;;;2.23;;
4051;SDS011;2040;50.924;11.604;2023-05-10T00:23:13;2.80;;;2.30;;
4051;SDS011;2040;50.924;11.604;2023-05-10T00:25:39;5.83;;;2.43;;
4051;SDS011;2040;50.924;11.604;2023-05-10T00:28:05;3.67;;;2.63;;
4051;SDS011;2040;50.924;11.604;2023-05-10T00:30:30;2.47;;;2.27;;
4051;SDS011;2040;50.924;11.604;2023-05-10T00:32:56;3.30;;;2.10;;
4051;SDS011;2040;50.924;11.604;2023-05-10T00:35:21;3.63;;;2.37;;
4051;SDS011;2040;50.924;11.604;2023-05-10T00:37:47;2.43;;;2.23;;
4051;SDS011;2040;50.924;11.604;2023-05-10T00:40:13;2.73;;;2.43;;
4051;SDS011;2040;50.924;11.604;2023-05-10T00:42:38;3.97;;;2.13;;
4051;SDS011;2040;50.924;11.604;2023-05-10T00:45:04;3.00;;;2.20;;
4051;SDS011;2040;50.924;11.604;2023-05-10T00:47:30;6.63;;;2.63;;
4051;SDS011;2040;50.924;11.604;2023-05-10T00:49:56;5.13;;;2.67;;
4051;SDS011;2040;50.924;11.604;2023-05-10T00:52:22;13.93;;;2.33;;
4051;SDS011;2040;50.924;11.604;2023-05-10T00:54:49;5.23;;;2.60;;
4051;SDS011;2040;50.924;11.604;2023-05-10T00:57:16;3.23;;;2.20;;
4051;SDS011;2040;50.924;11.604;2023-05-10T00:59:42;7.20;;;1.97;;
4051;SDS011;2040;50.924;11.604;2023-05-10T01:02:08;2.80;;;2.23;;
4051;SDS011;2040;50.924;11.604;2023-05-10T01:04:35;2.60;;;2.17;;
4051;SDS011;2040;50.924;11.604;2023-05-10T01:07:01;5.73;;;2.30;;
4051;SDS011;2040;50.924;11.604;2023-05-10T01:09:26;3.97;;;2.50;;
4051;SDS011;2040;50.924;11.604;2023-05-10T01:11:52;7.13;;;2.50;;
4051;SDS011;2040;50.924;11.604;2023-05-10T01:14:19;3.20;;;1.90;;
4051;SDS011;2040;50.924;11.604;2023-05-10T01:16:45;3.87;;;2.50;;
4051;SDS011;2040;50.924;11.604;2023-05-10T01:19:12;2.60;;;1.87;;
4051;SDS011;2040;50.924;11.604;2023-05-10T01:25:00;3.57;;;2.37;;
4051;SDS011;2040;50.924;11.604;2023-05-10T01:27:55;6.20;;;2.93;;
4051;SDS011;2040;50.924;11.604;2023-05-10T01:33:43;4.47;;;2.60;;
4051;SDS011;2040;50.924;11.604;2023-05-10T01:36:31;7.17;;;3.00;;
4051;SDS011;2040;50.924;11.604;2023-05-10T01:39:15;2.70;;;2.27;;
4051;SDS011;2040;50.924;11.604;2023-05-10T01:44:29;2.43;;;1.87;;
4051;SDS011;2040;50.924;11.604;2023-05-10T01:47:06;4.07;;;2.90;;
4051;SDS011;2040;50.924;11.604;2023-05-10T01:49:37;4.80;;;2.50;;
4051;SDS011;2040;50.924;11.604;2023-05-10T01:52:08;2.33;;;2.10;;
4051;SDS011;2040;50.924;11.604;2023-05-10T01:54:38;4.47;;;2.10;;
4051;SDS011;2040;50.924;11.604;2023-05-10T01:57:31;2.60;;;2.20;;
4051;SDS011;2040;50.924;11.604;2023-05-10T01:59:59;3.07;;;1.70;;
4051;SDS011;2040;50.924;11.604;2023-05-10T02:02:27;2.60;;;1.90;;
4051;SDS011;2040;50.924;11.604;2023-05-10T02:04:58;4.90;;;2.23;;
4051;SDS011;2040;50.924;11.604;2023-05-10T02:07:24;2.93;;;2.47;;
4051;SDS011;2040;50.924;11.604;2023-05-10T02:09:53;3.60;;;2.00;;
4051;SDS011;2040;50.924;11.604;2023-05-10T02:12:19;3.20;;;2.50;;
4051;SDS011;2040;50.924;11.604;2023-05-10T02:14:48;5.33;;;2.43;;
4051;SDS011;2040;50.924;11.604;2023-05-10T02:17:15;3.13;;;2.47;;
4051;SDS011;2040;50.924;11.604;2023-05-10T02:19:42;6.47;;;2.37;;
4051;SDS011;2040;50.924;11.604;2023-05-10T02:22:10;4.53;;;2.33;;
4051;SDS011;2040;50.924;11.604;2023-05-10T02:24:36;3.33;;;2.20;;
4051;SDS011;2040;50.924;11.604;2023-05-10T02:27:03;4.53;;;2.30;;
4051;SDS011;2040;50.924;11.604;2023-05-10T02:29:31;2.40;;;1.93;;
4051;SDS011;2040;50.924;11.604;2023-05-10T02:31:58;2.50;;;2.13;;
4051;SDS011;2040;50.924;11.604;2023-05-10T02:34:28;5.33;;;2.53;;
4051;SDS011;2040;50.924;11.604;2023-05-10T02:36:54;3.70;;;2.33;;
4051;SDS011;2040;50.924;11.604;2023-05-10T02:39:21;3.07;;;2.30;;
4051;SDS011;2040;50.924;11.604;2023-05-10T02:41:48;3.17;;;2.87;;
4051;SDS011;2040;50.924;11.604;2023-05-10T02:44:20;2.83;;;2.37;;
4051;SDS011;2040;50.924;11.604;2023-05-10T02:46:47;5.57;;;2.13;;
4051;SDS011;2040;50.924;11.604;2023-05-10T02:49:13;5.13;;;2.50;;
4051;SDS011;2040;50.924;11.604;2023-05-10T02:51:47;3.10;;;2.10;;
4051;SDS011;2040;50.924;11.604;2023-05-10T02:54:20;7.00;;;2.57;;
4051;SDS011;2040;50.924;11.604;2023-05-10T02:56:53;4.23;;;1.87;;
4051;SDS011;2040;50.924;11.604;2023-05-10T02:59:25;4.80;;;2.87;;
4051;SDS011;2040;50.924;11.604;2023-05-10T03:01:51;6.60;;;2.70;;
4051;SDS011;2040;50.924;11.604;2023-05-10T03:04:16;2.60;;;2.00;;
4051;SDS011;2040;50.924;11.604;2023-05-10T03:06:42;2.97;;;2.30;;
4051;SDS011;2040;50.924;11.604;2023-05-10T03:09:08;4.27;;;2.40;;
4051;SDS011;2040;50.924;11.604;2023-05-10T03:17:23;2.30;;;2.10;;
4051;SDS011;2040;50.924;11.604;2023-05-10T03:19:56;3.80;;;2.30;;
4051;SDS011;2040;50.924;11.604;2023-05-10T03:22:25;5.93;;;2.30;;
4051;SDS011;2040;50.924;11.604;2023-05-10T03:24:55;4.60;;;2.73;;
4051;SDS011;2040;50.924;11.604;2023-05-10T03:27:23;4.73;;;2.03;;
4051;SDS011;2040;50.924;11.604;2023-05-10T03:29:50;3.33;;;2.07;;
4051;SDS011;2040;50.924;11.604;2023-05-10T03:32:17;3.73;;;1.63;;
4051;SDS011;2040;50.924;11.604;2023-05-10T03:34:43;3.80;;;2.40;;
4051;SDS011;2040;50.924;11.604;2023-05-10T03:37:09;3.80;;;2.30;;
4051;SDS011;2040;50.924;11.604;2023-05-10T03:39:34;3.37;;;2.33;;
4051;SDS011;2040;50.924;11.604;2023-05-10T03:42:00;6.27;;;2.73;;
4051;SDS011;2040;50.924;11.604;2023-05-10T03:44:26;2.20;;;2.00;;
4051;SDS011;2040;50.924;11.604;2023-05-10T03:46:51;3.87;;;2.43;;
4051;SDS011;2040;50.924;11.604;2023-05-10T03:49:17;4.80;;;2.50;;
4051;SDS011;2040;50.924;11.604;2023-05-10T03:51:42;3.83;;;2.43;;
4051;SDS011;2040;50.924;11.604;2023-05-10T03:54:08;7.40;;;2.60;;
4051;SDS011;2040;50.924;11.604;2023-05-10T03:56:33;2.67;;;2.13;;
4051;SDS011;2040;50.924;11.604;2023-05-10T03:58:59;3.40;;;2.43;;
4051;SDS011;2040;50.924;11.604;2023-05-10T04:01:25;3.93;;;2.23;;
4051;SDS011;2040;50.924;11.604;2023-05-10T04:03:51;6.00;;;2.17;;
4051;SDS011;2040;50.924;11.604;2023-05-10T04:06:16;5.17;;;2.50;;
4051;SDS011;2040;50.924;11.604;2023-05-10T04:08:42;5.93;;;2.50;;
4051;SDS011;2040;50.924;11.604;2023-05-10T04:11:08;9.90;;;2.33;;
4051;SDS011;2040;50.924;11.604;2023-05-10T04:13:35;4.10;;;2.70;;
4051;SDS011;2040;50.924;11.604;2023-05-10T04:16:01;3.73;;;2.27;;
4051;SDS011;2040;50.924;11.604;2023-05-10T04:18:27;3.10;;;2.63;;
4051;SDS011;2040;50.924;11.604;2023-05-10T04:20:52;3.47;;;2.20;;
4051;SDS011;2040;50.924;11.604;2023-05-10T04:23:18;4.40;;;2.57;;
4051;SDS011;2040;50.924;11.604;2023-05-10T04:25:44;3.23;;;2.70;;
4051;SDS011;2040;50.924;11.604;2023-05-10T04:28:09;6.00;;;2.60;;
4051;SDS011;2040;50.924;11.604;2023-05-10T04:30:35;11.17;;;2.77;;
4051;SDS011;2040;50.924;11.604;2023-05-10T04:33:00;3.33;;;2.47;;
4051;SDS011;2040;50.924;11.604;2023-05-10T04:35:29;3.73;;;2.80;;
4051;SDS011;2040;50.924;11.604;2023-05-10T04:37:54;10.60;;;2.70;;
4051;SDS011;2040;50.924;11.604;2023-05-10T04:40:20;4.23;;;2.30;;
4051;SDS011;2040;50.924;11.604;2023-05-10T04:42:46;3.20;;;2.53;;
4051;SDS011;2040;50.924;11.604;2023-05-10T04:45:11;5.83;;;2.80;;
4051;SDS011;2040;50.924;11.604;2023-05-10T04:47:37;6.03;;;2.90;;
4051;SDS011;2040;50.924;11.604;2023-05-10T04:50:03;3.37;;;2.53;;
4051;SDS011;2040;50.924;11.604;2023-05-10T04:52:29;9.20;;;2.73;;
4051;SDS011;2040;50.924;11.604;2023-05-10T04:54:55;4.20;;;2.83;;
4051;SDS011;2040;50.924;11.604;2023-05-10T04:57:20;4.30;;;2.57;;
4051;SDS011;2040;50.924;11.604;2023-05-10T04:59:46;3.60;;;3.00;;
4051;SDS011;2040;50.924;11.604;2023-05-10T05:02:11;3.13;;;2.80;;
4051;SDS011;2040;50.924;11.604;2023-05-10T05:04:37;4.53;;;2.80;;
4051;SDS011;2040;50.924;11.604;2023-05-10T05:07:02;4.17;;;2.53;;
4051;SDS011;2040;50.924;11.604;2023-05-10T05:09:28;7.20;;;2.90;;
4051;SDS011;2040;50.924;11.604;2023-05-10T05:11:54;2.50;;;2.20;;
4051;SDS011;2040;50.924;11.604;2023-05-10T05:14:19;5.80;;;3.27;;
4051;SDS011;2040;50.924;11.604;2023-05-10T05:16:49;5.53;;;2.83;;
4051;SDS011;2040;50.924;11.604;2023-05-10T05:19:16;3.50;;;2.83;;
4051;SDS011;2040;50.924;11.604;2023-05-10T05:21:41;8.33;;;2.57;;
4051;SDS011;2040;50.924;11.604;2023-05-10T05:24:07;3.17;;;2.43;;
4051;SDS011;2040;50.924;11.604;2023-05-10T05:26:32;3.53;;;2.60;;
4051;SDS011;2040;50.924;11.604;2023-05-10T05:28:58;3.27;;;2.97;;
4051;SDS011;2040;50.924;11.604;2023-05-10T05:31:23;4.83;;;2.83;;
4051;SDS011;2040;50.924;11.604;2023-05-10T05:33:49;3.30;;;2.40;;
4051;SDS011;2040;50.924;11.604;2023-05-10T05:36:15;4.40;;;2.60;;
4051;SDS011;2040;50.924;11.604;2023-05-10T05:38:40;3.87;;;2.93;;
4051;SDS011;2040;50.924;11.604;2023-05-10T05:41:06;6.40;;;2.20;;
4051;SDS011;2040;50.924;11.604;2023-05-10T05:43:31;2.70;;;2.50;;
4051;SDS011;2040;50.924;11.604;2023-05-10T05:45:57;7.50;;;2.73;;
4051;SDS011;2040;50.924;11.604;2023-05-10T05:48:23;6.17;;;3.87;;
4051;SDS011;2040;50.924;11.604;2023-05-10T05:50:48;4.13;;;3.20;;
4051;SDS011;2040;50.924;11.604;2023-05-10T05:53:14;4.53;;;3.23;;
4051;SDS011;2040;50.924;11.604;2023-05-10T05:55:40;4.93;;;3.10;;
4051;SDS011;2040;50.924;11.604;2023-05-10T05:58:15;9.10;;;3.20;;
4051;SDS011;2040;50.924;11.604;2023-05-10T06:00:41;3.00;;;2.57;;
4051;SDS011;2040;50.924;11.604;2023-05-10T06:03:06;3.30;;;2.80;;
4051;SDS011;2040;50.924;11.604;2023-05-10T06:05:32;4.30;;;3.17;;
4051;SDS011;2040;50.924;11.604;2023-05-10T06:07:59;7.00;;;3.10;;
4051;SDS011;2040;50.924;11.604;2023-05-10T06:10:25;3.70;;;2.87;;
4051;SDS011;2040;50.924;11.604;2023-05-10T06:12:51;6.30;;;3.50;;
4051;SDS011;2040;50.924;11.604;2023-05-10T06:15:18;5.23;;;3.83;;
4051;SDS011;2040;50.924;11.604;2023-05-10T06:17:43;4.10;;;3.00;;
4051;SDS011;2040;50.924;11.604;2023-05-10T06:20:09;4.13;;;3.10;;
4051;SDS011;2040;50.924;11.604;2023-05-10T06:22:35;8.77;;;2.87;;
4051;SDS011;2040;50.924;11.604;2023-05-10T06:25:01;5.83;;;3.10;;
4051;SDS011;2040;50.924;11.604;2023-05-10T06:27:27;5.37;;;3.07;;
4051;SDS011;2040;50.924;11.604;2023-05-10T06:29:53;6.70;;;2.90;;
4051;SDS011;2040;50.924;11.604;2023-05-10T06:32:19;5.83;;;3.60;;
4051;SDS011;2040;50.924;11.604;2023-05-10T06:34:44;3.07;;;2.70;;
4051;SDS011;2040;50.924;11.604;2023-05-10T06:37:11;5.97;;;3.40;;
4051;SDS011;2040;50.924;11.604;2023-05-10T06:39:36;5.80;;;2.90;;
4051;SDS011;2040;50.924;11.604;2023-05-10T06:42:02;4.13;;;2.87;;
4051;SDS011;2040;50.924;11.604;2023-05-10T06:44:29;3.50;;;3.00;;
4051;SDS011;2040;50.924;11.604;2023-05-10T06:46:55;6.23;;;2.90;;
4051;SDS011;2040;50.924;11.604;2023-05-10T06:49:20;4.63;;;3.47;;
4051;SDS011;2040;50.924;11.604;2023-05-10T06:51:46;5.53;;;3.23;;
4051;SDS011;2040;50.924;11.604;2023-05-10T06:54:12;5.30;;;3.40;;
4051;SDS011;2040;50.924;11.604;2023-05-10T06:56:37;4.70;;;3.70;;
4051;SDS011;2040;50.924;11.604;2023-05-10T06:59:03;8.03;;;3.90;;
4051;SDS011;2040;50.924;11.604;2023-05-10T07:01:28;5.27;;;3.80;;
4051;SDS011;2040;50.924;11.604;2023-05-10T07:03:54;3.60;;;3.00;;
4051;SDS011;2040;50.924;11.604;2023-05-10T07:06:20;4.47;;;3.07;;
4051;SDS011;2040;50.924;11.604;2023-05-10T07:08:45;5.63;;;3.57;;
4051;SDS011;2040;50.924;11.604;2023-05-10T07:11:11;4.70;;;3.30;;
4051;SDS011;2040;50.924;11.604;2023-05-10T07:13:37;6.53;;;3.57;;
4051;SDS011;2040;50.924;11.604;2023-05-10T07:16:04;6.13;;;3.37;;
4051;SDS011;2040;50.924;11.604;2023-05-10T07:18:31;9.63;;;4.67;;
4051;SDS011;2040;50.924;11.604;2023-05-10T07:20:57;7.80;;;4.10;;
4051;SDS011;2040;50.924;11.604;2023-05-10T07:23:22;6.17;;;4.40;;
4051;SDS011;2040;50.924;11.604;2023-05-10T07:25:48;5.23;;;3.60;;
4051;SDS011;2040;50.924;11.604;2023-05-10T07:28:16;7.13;;;3.90;;
4051;SDS011;2040;50.924;11.604;2023-05-10T07:30:42;4.27;;;3.80;;
4051;SDS011;2040;50.924;11.604;2023-05-10T07:33:08;4.90;;;3.80;;
4051;SDS011;2040;50.924;11.604;2023-05-10T07:35:35;5.93;;;3.83;;
4051;SDS011;2040;50.924;11.604;2023-05-10T07:38:01;6.00;;;4.40;;
4051;SDS011;2040;50.924;11.604;2023-05-10T07:40:26;6.07;;;4.27;;
4051;SDS011;2040;50.924;11.604;2023-05-10T07:42:52;7.33;;;4.47;;
4051;SDS011;2040;50.924;11.604;2023-05-10T07:45:18;10.87;;;4.40;;
4051;SDS011;2040;50.924;11.604;2023-05-10T07:47:43;7.47;;;3.87;;
4051;SDS011;2040;50.924;11.604;2023-05-10T07:50:09;6.70;;;4.33;;
4051;SDS011;2040;50.924;11.604;2023-05-10T07:52:35;3.90;;;3.43;;
4051;SDS011;2040;50.924;11.604;2023-05-10T07:55:00;7.03;;;3.93;;
4051;SDS011;2040;50.924;11.604;2023-05-10T07:57:26;5.57;;;4.20;;
4051;SDS011;2040;50.924;11.604;2023-05-10T07:59:51;5.40;;;4.10;;
4051;SDS011;2040;50.924;11.604;2023-05-10T08:02:17;7.30;;;4.50;;
4051;SDS011;2040;50.924;11.604;2023-05-10T08:04:42;6.53;;;4.70;;
4051;SDS011;2040;50.924;11.604;2023-05-10T08:07:08;8.37;;;3.87;;
4051;SDS011;2040;50.924;11.604;2023-05-10T08:09:33;7.80;;;5.17;;
4051;SDS011;2040;50.924;11.604;2023-05-10T08:11:59;7.07;;;3.97;;
4051;SDS011;2040;50.924;11.604;2023-05-10T08:14:25;8.50;;;4.07;;
4051;SDS011;2040;50.924;11.604;2023-05-10T08:16:52;9.83;;;4.40;;
4051;SDS011;2040;50.924;11.604;2023-05-10T08:19:18;6.17;;;4.43;;
4051;SDS011;2040;50.924;11.604;2023-05-10T08:21:45;9.73;;;4.60;;
4051;SDS011;2040;50.924;11.604;2023-05-10T08:24:10;5.10;;;3.77;;
4051;SDS011;2040;50.924;11.604;2023-05-10T08:26:36;5.33;;;4.20;;
4051;SDS011;2040;50.924;11.604;2023-05-10T08:29:02;6.90;;;4.73;;
4051;SDS011;2040;50.924;11.604;2023-05-10T08:31:27;6.67;;;4.60;;
4051;SDS011;2040;50.924;11.604;2023-05-10T08:33:53;5.70;;;4.37;;
4051;SDS011;2040;50.924;11.604;2023-05-10T08:36:18;5.30;;;3.30;;
4051;SDS011;2040;50.924;11.604;2023-05-10T08:38:52;7.80;;;4.47;;
4051;SDS011;2040;50.924;11.604;2023-05-10T08:41:22;11.40;;;4.43;;
4051;SDS011;2040;50.924;11.604;2023-05-10T08:43:53;6.30;;;3.90;;
4051;SDS011;2040;50.924;11.604;2023-05-10T08:46:19;5.03;;;3.70;;
4051;SDS011;2040;50.924;11.604;2023-05-10T08:48:46;7.53;;;4.20;;
4051;SDS011;2040;50.924;11.604;2023-05-10T08:51:14;5.50;;;3.80;;
4051;SDS011;2040;50.924;11.604;2023-05-10T08:53:43;7.40;;;4.70;;
4051;SDS011;2040;50.924;11.604;2023-05-10T08:56:10;5.90;;;4.50;;
4051;SDS011;2040;50.924;11.604;2023-05-10T08:58:36;8.13;;;4.30;;
4051;SDS011;2040;50.924;11.604;2023-05-10T09:01:02;5.23;;;3.87;;
4051;SDS011;2040;50.924;11.604;2023-05-10T09:03:28;5.30;;;4.07;;
4051;SDS011;2040;50.924;11.604;2023-05-10T09:05:55;6.20;;;4.00;;
4051;SDS011;2040;50.924;11.604;2023-05-10T09:08:21;5.53;;;4.20;;
4051;SDS011;2040;50.924;11.604;2023-05-10T09:10:50;4.63;;;3.80;;
4051;SDS011;2040;50.924;11.604;2023-05-10T09:13:16;6.50;;;4.77;;
4051;SDS011;2040;50.924;11.604;2023-05-10T09:15:43;6.77;;;4.50;;
4051;SDS011;2040;50.924;11.604;2023-05-10T09:18:09;4.10;;;3.70;;
4051;SDS011;2040;50.924;11.604;2023-05-10T09:20:35;8.23;;;4.37;;
4051;SDS011;2040;50.924;11.604;2023-05-10T09:23:01;4.73;;;3.70;;
4051;SDS011;2040;50.924;11.604;2023-05-10T09:25:26;6.50;;;3.83;;
4051;SDS011;2040;50.924;11.604;2023-05-10T09:27:52;4.77;;;3.37;;
4051;SDS011;2040;50.924;11.604;2023-05-10T09:30:25;4.63;;;3.70;;
4051;SDS011;2040;50.924;11.604;2023-05-10T09:32:53;5.03;;;4.03;;
4051;SDS011;2040;50.924;11.604;2023-05-10T09:35:21;5.87;;;3.60;;
4051;SDS011;2040;50.924;11.604;2023-05-10T09:37:53;5.50;;;4.40;;
4051;SDS011;2040;50.924;11.604;2023-05-10T09:40:22;5.43;;;3.87;;
4051;SDS011;2040;50.924;11.604;2023-05-10T09:45:27;5.53;;;3.80;;
4051;SDS011;2040;50.924;11.604;2023-05-10T09:47:55;4.37;;;3.87;;
4051;SDS011;2040;50.924;11.604;2023-05-10T09:50:21;4.17;;;3.53;;
4051;SDS011;2040;50.924;11.604;2023-05-10T09:52:54;4.60;;;3.77;;
4051;SDS011;2040;50.924;11.604;2023-05-10T09:55:23;9.03;;;4.17;;
4051;SDS011;2040;50.924;11.604;2023-05-10T09:57:58;4.00;;;3.60;;
4051;SDS011;2040;50.924;11.604;2023-05-10T10:00:25;3.40;;;3.07;;
4051;SDS011;2040;50.924;11.604;2023-05-10T10:02:54;4.30;;;3.23;;
4051;SDS011;2040;50.924;11.604;2023-05-10T10:05:27;5.93;;;3.70;;
4051;SDS011;2040;50.924;11.604;2023-05-10T10:07:57;5.73;;;3.40;;
4051;SDS011;2040;50.924;11.604;2023-05-10T10:10:26;3.23;;;2.93;;
4051;SDS011;2040;50.924;11.604;2023-05-10T10:12:53;3.90;;;3.07;;
4051;SDS011;2040;50.924;11.604;2023-05-10T10:15:22;7.43;;;3.30;;
4051;SDS011;2040;50.924;11.604;2023-05-10T10:17:49;4.70;;;2.97;;
4051;SDS011;2040;50.924;11.604;2023-05-10T10:20:16;4.83;;;2.93;;
4051;SDS011;2040;50.924;11.604;2023-05-10T10:22:42;5.00;;;3.17;;
4051;SDS011;2040;50.924;11.604;2023-05-10T10:25:14;4.63;;;2.90;;
4051;SDS011;2040;50.924;11.604;2023-05-10T10:33:10;3.53;;;3.23;;
4051;SDS011;2040;50.924;11.604;2023-05-10T10:35:50;5.90;;;3.10;;
4051;SDS011;2040;50.924;11.604;2023-05-10T10:38:18;2.83;;;2.40;;
4051;SDS011;2040;50.924;11.604;2023-05-10T10:40:43;2.60;;;2.40;;
4051;SDS011;2040;50.924;11.604;2023-05-10T10:43:22;3.37;;;2.37;;
4051;SDS011;2040;50.924;11.604;2023-05-10T10:46:10;3.67;;;2.70;;
4051;SDS011;2040;50.924;11.604;2023-05-10T10:48:39;3.10;;;2.37;;
4051;SDS011;2040;50.924;11.604;2023-05-10T10:51:23;4.67;;;2.97;;
4051;SDS011;2040;50.924;11.604;2023-05-10T10:53:49;2.60;;;2.20;;
4051;SDS011;2040;50.924;11.604;2023-05-10T10:56:14;2.80;;;2.50;;
4051;SDS011;2040;50.924;11.604;2023-05-10T10:58:40;3.47;;;2.47;;
4051;SDS011;2040;50.924;11.604;2023-05-10T11:01:19;2.63;;;2.43;;
4051;SDS011;2040;50.924;11.604;2023-05-10T11:04:16;4.43;;;2.80;;
4051;SDS011;2040;50.924;11.604;2023-05-10T11:06:43;2.17;;;1.97;;
4051;SDS011;2040;50.924;11.604;2023-05-10T11:09:12;2.43;;;2.20;;
4051;SDS011;2040;50.924;11.604;2023-05-10T11:11:51;3.63;;;2.30;;
4051;SDS011;2040;50.924;11.604;2023-05-10T11:14:20;2.77;;;2.00;;
4051;SDS011;2040;50.924;11.604;2023-05-10T11:16:47;3.20;;;2.20;;
4051;SDS011;2040;50.924;11.604;2023-05-10T11:19:13;2.23;;;2.03;;
4051;SDS011;2040;50.924;11.604;2023-05-10T11:21:47;3.37;;;2.40;;
4051;SDS011;2040;50.924;11.604;2023-05-10T11:24:19;2.23;;;2.03;;
4051;SDS011;2040;50.924;11.604;2023-05-10T11:26:49;2.30;;;1.93;;
4051;SDS011;2040;50.924;11.604;2023-05-10T11:29:16;5.10;;;2.37;;
4051;SDS011;2040;50.924;11.604;2023-05-10T11:31:45;1.33;;;1.07;;
4051;SDS011;2040;50.924;11.604;2023-05-10T11:34:12;0.70;;;0.70;;
4051;SDS011;2040;50.924;11.604;2023-05-10T11:36:52;1.13;;;0.80;;
4051;SDS011;2040;50.924;11.604;2023-05-10T11:39:19;0.63;;;0.63;;
4051;SDS011;2040;50.924;11.604;2023-05-10T11:41:46;1.13;;;0.80;;
4051;SDS011;2040;50.924;11.604;2023-05-10T11:44:13;0.70;;;0.70;;
4051;SDS011;2040;50.924;11.604;2023-05-10T11:46:39;0.60;;;0.60;;
4051;SDS011;2040;50.924;11.604;2023-05-10T11:49:06;0.60;;;0.60;;
4051;SDS011;2040;50.924;11.604;2023-05-10T11:51:35;0.80;;;0.60;;
4051;SDS011;2040;50.924;11.604;2023-05-10T11:54:02;0.60;;;0.60;;
4051;SDS011;2040;50.924;11.604;2023-05-10T11:56:32;0.60;;;0.60;;
4051;SDS011;2040;50.924;11.604;2023-05-10T11:58:58;1.67;;;0.60;;
4051;SDS011;2040;50.924;11.604;2023-05-10T12:01:26;0.90;;;0.50;;
4051;SDS011;2040;50.924;11.604;2023-05-10T12:03:53;0.90;;;0.77;;
4051;SDS011;2040;50.924;11.604;2023-05-10T12:06:20;0.70;;;0.70;;
4051;SDS011;2040;50.924;11.604;2023-05-10T12:08:46;0.87;;;0.60;;
4051;SDS011;2040;50.924;11.604;2023-05-10T12:11:13;1.00;;;0.60;;
4051;SDS011;2040;50.924;11.604;2023-05-10T12:13:41;2.10;;;0.60;;
4051;SDS011;2040;50.924;11.604;2023-05-10T12:16:15;0.80;;;0.80;;
4051;SDS011;2040;50.924;11.604;2023-05-10T12:18:42;0.70;;;0.70;;
4051;SDS011;2040;50.924;11.604;2023-05-10T12:21:09;1.40;;;0.73;;
4051;SDS011;2040;50.924;11.604;2023-05-10T12:23:36;0.60;;;0.60;;
4051;SDS011;2040;50.924;11.604;2023-05-10T12:26:02;0.90;;;0.80;;
4051;SDS011;2040;50.924;11.604;2023-05-10T12:28:30;1.50;;;0.80;;
4051;SDS011;2040;50.924;11.604;2023-05-10T12:30:57;1.60;;;0.90;;
4051;SDS011;2040;50.924;11.604;2023-05-10T12:33:23;1.10;;;0.90;;
4051;SDS011;2040;50.924;11.604;2023-05-10T12:35:49;0.60;;;0.60;;
4051;SDS011;2040;50.924;11.604;2023-05-10T12:41:03;1.17;;;1.07;;
4051;SDS011;2040;50.924;11.604;2023-05-10T12:43:31;0.60;;;0.60;;
4051;SDS011;2040;50.924;11.604;2023-05-10T12:45:57;1.70;;;0.83;;
4051;SDS011;2040;50.924;11.604;2023-05-10T12:48:23;0.90;;;0.70;;
4051;SDS011;2040;50.924;11.604;2023-05-10T12:50:49;0.63;;;0.63;;
4051;SDS011;2040;50.924;11.604;2023-05-10T12:53:15;0.70;;;0.70;;
4051;SDS011;2040;50.924;11.604;2023-05-10T12:55:42;0.70;;;0.70;;
4051;SDS011;2040;50.924;11.604;2023-05-10T12:58:07;0.80;;;0.60;;
4051;SDS011;2040;50.924;11.604;2023-05-10T13:00:33;1.20;;;1.00;;
4051;SDS011;2040;50.924;11.604;2023-05-10T13:02:59;0.80;;;0.80;;
4051;SDS011;2040;50.924;11.604;2023-05-10T13:05:24;1.37;;;1.07;;
4051;SDS011;2040;50.924;11.604;2023-05-10T13:07:50;0.73;;;0.73;;
4051;SDS011;2040;50.924;11.604;2023-05-10T13:10:16;1.10;;;0.90;;
4051;SDS011;2040;50.924;11.604;2023-05-10T13:12:41;0.60;;;0.60;;
4051;SDS011;2040;50.924;11.604;2023-05-10T13:15:07;0.83;;;0.83;;
4051;SDS011;2040;50.924;11.604;2023-05-10T13:17:33;0.80;;;0.80;;
4051;SDS011;2040;50.924;11.604;2023-05-10T13:19:58;0.90;;;0.87;;
4051;SDS011;2040;50.924;11.604;2023-05-10T13:22:24;1.03;;;1.00;;
4051;SDS011;2040;50.924;11.604;2023-05-10T13:24:50;0.70;;;0.70;;
4051;SDS011;2040;50.924;11.604;2023-05-10T13:27:15;1.50;;;1.20;;
4051;SDS011;2040;50.924;11.604;2023-05-10T13:29:43;1.27;;;0.90;;
4051;SDS011;2040;50.924;11.604;2023-05-10T13:32:09;1.37;;;1.00;;
4051;SDS011;2040;50.924;11.604;2023-05-10T13:34:34;1.00;;;0.80;;
4051;SDS011;2040;50.924;11.604;2023-05-10T13:37:00;0.80;;;0.80;;
4051;SDS011;2040;50.924;11.604;2023-05-10T13:39:26;2.00;;;0.93;;
4051;SDS011;2040;50.924;11.604;2023-05-10T13:41:52;1.30;;;0.80;;
4051;SDS011;2040;50.924;11.604;2023-05-10T13:44:17;3.90;;;0.80;;
4051;SDS011;2040;50.924;11.604;2023-05-10T13:46:45;1.10;;;1.00;;
4051;SDS011;2040;50.924;11.604;2023-05-10T13:49:11;1.23;;;1.00;;
4051;SDS011;2040;50.924;11.604;2023-05-10T13:51:36;0.97;;;0.87;;
4051;SDS011;2040;50.924;11.604;2023-05-10T13:54:02;0.90;;;0.73;;
4051;SDS011;2040;50.924;11.604;2023-05-10T13:56:28;1.50;;;1.10;;
4051;SDS011;2040;50.924;11.604;2023-05-10T13:58:53;1.10;;;1.00;;
4051;SDS011;2040;50.924;11.604;2023-05-10T14:01:19;1.00;;;0.87;;
4051;SDS011;2040;50.924;11.604;2023-05-10T14:03:44;1.20;;;1.10;;
4051;SDS011;2040;50.924;11.604;2023-05-10T14:06:10;1.20;;;1.10;;
4051;SDS011;2040;50.924;11.604;2023-05-10T14:08:36;1.30;;;1.10;;
4051;SDS011;2040;50.924;11.604;2023-05-10T14:11:01;1.70;;;1.10;;
4051;SDS011;2040;50.924;11.604;2023-05-10T14:13:27;3.27;;;1.00;;
4051;SDS011;2040;50.924;11.604;2023-05-10T14:15:53;1.23;;;0.97;;
4051;SDS011;2040;50.924;11.604;2023-05-10T14:18:19;1.97;;;0.90;;
4051;SDS011;2040;50.924;11.604;2023-05-10T14:20:45;1.47;;;0.93;;
4051;SDS011;2040;50.924;11.604;2023-05-10T14:23:11;0.80;;;0.80;;
4051;SDS011;2040;50.924;11.604;2023-05-10T14:25:37;0.73;;;0.70;;
4051;SDS011;2040;50.924;11.604;2023-05-10T14:28:05;0.60;;;0.60;;
4051;SDS011;2040;50.924;11.604;2023-05-10T14:30:31;0.80;;;0.80;;
4051;SDS011;2040;50.924;11.604;2023-05-10T14:32:59;0.80;;;0.70;;
4051;SDS011;2040;50.924;11.604;2023-05-10T14:35:26;1.03;;;0.70;;
4051;SDS011;2040;50.924;11.604;2023-05-10T14:37:52;0.60;;;0.60;;
4051;SDS011;2040;50.924;11.604;2023-05-10T14:40:17;0.80;;;0.80;;
4051;SDS011;2040;50.924;11.604;2023-05-10T14:42:43;1.13;;;0.70;;
4051;SDS011;2040;50.924;11.604;2023-05-10T14:45:09;0.57;;;0.57;;
4051;SDS011;2040;50.924;11.604;2023-05-10T14:47:36;0.60;;;0.60;;
4051;SDS011;2040;50.924;11.604;2023-05-10T14:50:01;0.60;;;0.60;;
4051;SDS011;2040;50.924;11.604;2023-05-10T14:52:27;0.60;;;0.60;;
4051;SDS011;2040;50.924;11.604;2023-05-10T14:54:52;0.67;;;0.67;;
4051;SDS011;2040;50.924;11.604;2023-05-10T14:57:18;1.17;;;0.70;;
4051;SDS011;2040;50.924;11.604;2023-05-10T14:59:44;0.70;;;0.60;;
4051;SDS011;2040;50.924;11.604;2023-05-10T15:02:09;0.60;;;0.60;;
4051;SDS011;2040;50.924;11.604;2023-05-10T15:04:35;1.17;;;0.70;;
4051;SDS011;2040;50.924;11.604;2023-05-10T15:07:01;1.47;;;0.80;;
4051;SDS011;2040;50.924;11.604;2023-05-10T15:09:26;0.70;;;0.60;;
4051;SDS011;2040;50.924;11.604;2023-05-10T15:11:52;0.80;;;0.80;;
4051;SDS011;2040;50.924;11.604;2023-05-10T15:14:18;8.73;;;0.90;;
4051;SDS011;2040;50.924;11.604;2023-05-10T15:16:44;0.83;;;0.80;;
4051;SDS011;2040;50.924;11.604;2023-05-10T15:19:09;1.13;;;0.60;;
4051;SDS011;2040;50.924;11.604;2023-05-10T15:21:35;0.80;;;0.70;;
4051;SDS011;2040;50.924;11.604;2023-05-10T15:24:04;1.67;;;0.90;;
4051;SDS011;2040;50.924;11.604;2023-05-10T15:26:30;2.63;;;0.80;;